createdAt,value
2023-04-25T00:00:17.022Z,4.00
2023-04-25T00:01:17.007Z,4.00
2023-04-25T00:02:17.049Z,4.00
2023-04-25T00:03:17.084Z,4.00
2023-04-25T00:04:17.321Z,4.00
2023-04-25T00:05:17.044Z,4.00
2023-04-25T00:06:16.941Z,4.00
2023-04-25T00:07:16.919Z,4.00
2023-04-25T00:08:16.890Z,4.00
2023-04-25T00:09:16.886Z,4.00
2023-04-25T00:10:16.890Z,4.00
2023-04-25T00:11:16.854Z,4.00
2023-04-25T00:12:16.842Z,4.00
2023-04-25T00:13:16.833Z,4.00
2023-04-25T00:14:16.817Z,4.00
2023-04-25T00:15:15.429Z,4.00
2023-04-25T00:16:16.838Z,4.00
2023-04-25T00:17:16.777Z,4.00
2023-04-25T00:18:16.766Z,4.00
2023-04-25T00:19:16.758Z,4.00
2023-04-25T00:20:16.762Z,0.00
2023-04-25T00:21:16.725Z,0.00
2023-04-25T00:22:16.716Z,0.00
2023-04-25T00:23:15.383Z,4.00
2023-04-25T00:24:16.694Z,4.00
2023-04-25T00:25:16.694Z,4.00
2023-04-25T00:26:16.653Z,4.00
2023-04-25T00:27:16.641Z,0.00
2023-04-25T00:28:16.637Z,0.00
2023-04-25T00:29:16.631Z,0.00
2023-04-25T00:30:16.679Z,4.00
2023-04-25T00:31:15.696Z,4.00
2023-04-25T00:32:16.570Z,4.00
2023-04-25T00:33:16.558Z,4.00
2023-04-25T00:34:16.548Z,4.00
2023-04-25T00:35:16.555Z,4.00
2023-04-25T00:36:16.534Z,4.00
2023-04-25T00:37:16.506Z,4.00
2023-04-25T00:38:16.496Z,4.00
2023-04-25T00:39:16.478Z,0.00
2023-04-25T00:40:16.491Z,0.00
2023-04-25T00:41:16.466Z,0.00
2023-04-25T00:42:16.448Z,0.00
2023-04-25T00:43:16.425Z,0.00
2023-04-25T00:44:16.415Z,0.00
2023-04-25T00:45:16.421Z,0.00
2023-04-25T00:46:16.500Z,0.00
2023-04-25T00:47:16.360Z,0.00
2023-04-25T00:48:16.364Z,0.00
2023-04-25T00:49:16.337Z,0.00
2023-04-25T00:50:16.354Z,0.00
2023-04-25T00:51:16.328Z,0.00
2023-04-25T00:52:16.313Z,0.00
2023-04-25T00:53:16.289Z,0.00
2023-04-25T00:54:16.290Z,0.00
2023-04-25T00:55:16.271Z,0.00
2023-04-25T00:56:16.259Z,0.00
2023-04-25T00:57:16.230Z,0.00
2023-04-25T00:58:16.230Z,0.00
2023-04-25T00:59:16.222Z,0.00
2023-04-25T01:00:16.203Z,0.00
2023-04-25T01:01:16.246Z,0.00
2023-04-25T01:02:16.228Z,0.00
2023-04-25T01:03:16.313Z,0.00
2023-04-25T01:04:16.355Z,0.00
2023-04-25T01:05:16.124Z,0.00
2023-04-25T01:06:16.125Z,0.00
2023-04-25T01:07:16.094Z,0.00
2023-04-25T01:08:16.086Z,0.00
2023-04-25T01:09:16.066Z,0.00
2023-04-25T01:10:16.056Z,0.00
2023-04-25T01:11:16.043Z,0.00
2023-04-25T01:12:16.036Z,0.00
2023-04-25T01:13:16.007Z,0.00
2023-04-25T01:14:16.031Z,0.00
2023-04-25T01:15:16.001Z,0.00
2023-04-25T01:16:16.019Z,0.00
2023-04-25T01:17:15.966Z,0.00
2023-04-25T01:18:15.946Z,0.00
2023-04-25T01:19:14.963Z,0.00
2023-04-25T01:20:14.962Z,0.00
2023-04-25T01:21:14.967Z,0.00
2023-04-25T01:22:15.903Z,0.00
2023-04-25T01:23:15.877Z,0.00
2023-04-25T01:24:15.871Z,0.00
2023-04-25T01:25:15.856Z,0.00
2023-04-25T01:26:15.852Z,0.00
2023-04-25T01:27:14.596Z,0.00
2023-04-25T01:28:15.814Z,0.00
2023-04-25T01:29:15.795Z,0.00
2023-04-25T01:30:15.790Z,0.00
2023-04-25T01:31:15.788Z,0.00
2023-04-25T01:32:15.805Z,0.00
2023-04-25T01:33:15.748Z,0.00
2023-04-25T01:34:15.737Z,0.00
2023-04-25T01:35:15.030Z,0.00
2023-04-25T01:36:15.721Z,0.00
2023-04-25T01:37:15.690Z,0.00
2023-04-25T01:38:15.688Z,0.00
2023-04-25T01:39:15.685Z,0.00
2023-04-25T01:40:15.652Z,0.00
2023-04-25T01:41:15.675Z,0.00
2023-04-25T01:42:15.627Z,0.00
2023-04-25T01:43:14.917Z,0.00
2023-04-25T01:44:15.612Z,0.00
2023-04-25T01:45:15.596Z,0.00
2023-04-25T01:46:15.643Z,0.00
2023-04-25T01:47:15.570Z,0.00
2023-04-25T01:48:15.558Z,0.00
2023-04-25T01:49:15.528Z,0.00
2023-04-25T01:50:15.541Z,0.00
2023-04-25T01:51:15.514Z,0.00
2023-04-25T01:52:15.495Z,0.00
2023-04-25T01:53:15.500Z,0.00
2023-04-25T01:54:15.482Z,0.00
2023-04-25T01:55:15.455Z,0.00
2023-04-25T01:56:15.449Z,0.00
2023-04-25T01:57:15.427Z,0.00
2023-04-25T01:58:15.424Z,0.00
2023-04-25T01:59:15.403Z,0.00
2023-04-25T02:00:15.383Z,0.00
2023-04-25T02:01:15.428Z,0.00
2023-04-25T02:02:15.457Z,0.00
2023-04-25T02:03:15.479Z,0.00
2023-04-25T02:04:15.456Z,0.00
2023-04-25T02:05:15.323Z,0.00
2023-04-25T02:06:15.321Z,0.00
2023-04-25T02:07:15.286Z,0.00
2023-04-25T02:08:15.283Z,0.00
2023-04-25T02:09:15.262Z,0.00
2023-04-25T02:10:15.251Z,0.00
2023-04-25T02:11:15.251Z,0.00
2023-04-25T02:12:15.229Z,0.00
2023-04-25T02:13:15.213Z,0.00
2023-04-25T02:14:15.203Z,0.00
2023-04-25T02:15:15.193Z,0.00
2023-04-25T02:16:15.278Z,0.00
2023-04-25T02:17:15.204Z,0.00
2023-04-25T02:18:15.208Z,0.00
2023-04-25T02:19:15.152Z,0.00
2023-04-25T02:20:15.117Z,0.00
2023-04-25T02:21:15.115Z,0.00
2023-04-25T02:22:15.110Z,0.00
2023-04-25T02:23:13.635Z,0.00
2023-04-25T02:24:15.085Z,0.00
2023-04-25T02:25:15.063Z,0.00
2023-04-25T02:26:15.055Z,0.00
2023-04-25T02:27:15.050Z,0.00
2023-04-25T02:28:15.012Z,0.00
2023-04-25T02:29:15.019Z,0.00
2023-04-25T02:30:14.997Z,0.00
2023-04-25T02:31:13.599Z,0.00
2023-04-25T02:32:14.962Z,0.00
2023-04-25T02:33:14.952Z,0.00
2023-04-25T02:34:14.931Z,0.00
2023-04-25T02:35:14.938Z,0.00
2023-04-25T02:36:14.923Z,0.00
2023-04-25T02:37:14.911Z,0.00
2023-04-25T02:38:14.903Z,0.00
2023-04-25T02:39:13.874Z,0.00
2023-04-25T02:40:14.885Z,0.00
2023-04-25T02:41:14.855Z,0.00
2023-04-25T02:42:14.837Z,0.00
2023-04-25T02:43:14.852Z,0.00
2023-04-25T02:44:14.818Z,0.00
2023-04-25T02:45:13.520Z,0.00
2023-04-25T02:46:15.587Z,0.00
2023-04-25T02:47:13.555Z,0.00
2023-04-25T02:48:14.807Z,0.00
2023-04-25T02:49:14.734Z,0.00
2023-04-25T02:50:14.748Z,0.00
2023-04-25T02:51:14.725Z,0.00
2023-04-25T02:52:14.707Z,0.00
2023-04-25T02:53:14.684Z,0.00
2023-04-25T02:54:14.683Z,0.00
2023-04-25T02:55:13.712Z,0.00
2023-04-25T02:56:14.661Z,0.00
2023-04-25T02:57:14.634Z,0.00
2023-04-25T02:58:14.635Z,0.00
2023-04-25T02:59:14.614Z,0.00
2023-04-25T03:00:14.595Z,0.00
2023-04-25T03:01:14.632Z,0.00
2023-04-25T03:02:14.617Z,0.00
2023-04-25T03:03:13.155Z,0.00
2023-04-25T03:04:14.568Z,0.00
2023-04-25T03:05:14.520Z,0.00
2023-04-25T03:06:14.517Z,0.00
2023-04-25T03:07:14.485Z,0.00
2023-04-25T03:08:14.514Z,0.00
2023-04-25T03:09:14.486Z,0.00
2023-04-25T03:10:14.458Z,0.00
2023-04-25T03:11:14.466Z,0.00
2023-04-25T03:12:14.458Z,0.00
2023-04-25T03:13:14.433Z,0.00
2023-04-25T03:14:14.402Z,0.00
2023-04-25T03:15:14.397Z,0.00
2023-04-25T03:16:14.403Z,0.00
2023-04-25T03:17:14.364Z,0.00
2023-04-25T03:18:14.343Z,0.00
2023-04-25T03:19:13.133Z,0.00
2023-04-25T03:20:14.327Z,0.00
2023-04-25T03:21:14.311Z,0.00
2023-04-25T03:22:14.317Z,0.00
2023-04-25T03:23:14.282Z,0.00
2023-04-25T03:24:14.284Z,0.00
2023-04-25T03:25:14.260Z,0.00
2023-04-25T03:26:14.240Z,0.00
2023-04-25T03:27:14.231Z,0.00
2023-04-25T03:28:14.222Z,0.00
2023-04-25T03:29:14.205Z,0.00
2023-04-25T03:30:12.779Z,0.00
2023-04-25T03:31:14.169Z,0.00
2023-04-25T03:32:14.354Z,0.00
2023-04-25T03:33:14.144Z,0.00
2023-04-25T03:34:14.140Z,0.00
2023-04-25T03:35:12.674Z,0.00
2023-04-25T03:36:14.117Z,0.00
2023-04-25T03:37:14.141Z,0.00
2023-04-25T03:38:14.082Z,0.00
2023-04-25T03:39:14.076Z,0.00
2023-04-25T03:40:14.057Z,0.00
2023-04-25T03:41:13.101Z,0.00
2023-04-25T03:42:13.092Z,0.00
2023-04-25T03:43:13.110Z,0.00
2023-04-25T03:44:14.005Z,0.00
2023-04-25T03:45:13.981Z,4.00
2023-04-25T03:46:14.025Z,4.00
2023-04-25T03:47:13.974Z,4.00
2023-04-25T03:48:13.951Z,4.00
2023-04-25T03:49:13.932Z,4.00
2023-04-25T03:50:13.937Z,4.00
2023-04-25T03:51:12.449Z,0.00
2023-04-25T03:52:13.913Z,4.00
2023-04-25T03:53:13.155Z,4.00
2023-04-25T03:54:13.884Z,4.00
2023-04-25T03:55:13.861Z,4.00
2023-04-25T03:56:13.849Z,4.00
2023-04-25T03:57:13.855Z,4.00
2023-04-25T03:58:13.824Z,8.00
2023-04-25T03:59:12.800Z,4.00
2023-04-25T04:00:13.804Z,8.00
2023-04-25T04:01:13.767Z,8.00
2023-04-25T04:02:12.859Z,8.00
2023-04-25T04:03:13.886Z,8.00
2023-04-25T04:04:14.196Z,12.00
2023-04-25T04:05:14.002Z,8.00
2023-04-25T04:06:13.712Z,12.00
2023-04-25T04:07:12.974Z,12.00
2023-04-25T04:08:13.683Z,16.00
2023-04-25T04:09:13.679Z,16.00
2023-04-25T04:10:13.697Z,20.00
2023-04-25T04:11:13.642Z,24.00
2023-04-25T04:12:13.654Z,28.00
2023-04-25T04:13:13.629Z,36.00
2023-04-25T04:14:13.592Z,52.00
2023-04-25T04:15:13.594Z,56.00
2023-04-25T04:16:13.612Z,64.00
2023-04-25T04:17:13.575Z,68.00
2023-04-25T04:18:13.548Z,80.00
2023-04-25T04:19:13.181Z,84.00
2023-04-25T04:20:13.539Z,92.00
2023-04-25T04:21:13.519Z,92.00
2023-04-25T04:22:13.498Z,88.00
2023-04-25T04:23:12.147Z,92.00
2023-04-25T04:24:13.473Z,108.00
2023-04-25T04:25:13.457Z,124.00
2023-04-25T04:26:13.542Z,144.00
2023-04-25T04:27:13.423Z,152.00
2023-04-25T04:28:13.415Z,160.00
2023-04-25T04:29:13.393Z,160.00
2023-04-25T04:30:13.396Z,152.00
2023-04-25T04:31:13.408Z,148.00
2023-04-25T04:32:13.376Z,144.00
2023-04-25T04:33:13.385Z,148.00
2023-04-25T04:34:13.329Z,164.00
2023-04-25T04:35:13.313Z,176.00
2023-04-25T04:36:13.302Z,188.00
2023-04-25T04:37:13.292Z,196.00
2023-04-25T04:38:13.271Z,200.00
2023-04-25T04:39:13.261Z,208.00
2023-04-25T04:40:13.259Z,220.00
2023-04-25T04:41:13.236Z,236.00
2023-04-25T04:42:13.240Z,260.00
2023-04-25T04:43:13.241Z,292.00
2023-04-25T04:44:13.203Z,300.00
2023-04-25T04:45:13.212Z,296.00
2023-04-25T04:46:13.233Z,284.00
2023-04-25T04:47:13.157Z,276.00
2023-04-25T04:48:13.183Z,280.00
2023-04-25T04:49:13.133Z,292.00
2023-04-25T04:50:13.130Z,312.00
2023-04-25T04:51:13.096Z,368.00
2023-04-25T04:52:13.121Z,404.00
2023-04-25T04:53:11.897Z,428.00
2023-04-25T04:54:11.888Z,428.00
2023-04-25T04:55:11.906Z,432.00
2023-04-25T04:56:13.048Z,464.00
2023-04-25T04:57:11.897Z,516.00
2023-04-25T04:58:13.005Z,600.00
2023-04-25T04:59:11.794Z,660.00
2023-04-25T05:00:12.981Z,716.00
2023-04-25T05:01:13.056Z,736.00
2023-04-25T05:02:11.945Z,712.00
2023-04-25T05:03:13.077Z,660.00
2023-04-25T05:04:13.046Z,640.00
2023-04-25T05:05:12.912Z,652.00
2023-04-25T05:06:12.898Z,744.00
2023-04-25T05:07:12.921Z,916.00
2023-04-25T05:08:12.871Z,1120.00
2023-04-25T05:09:12.854Z,1328.00
2023-04-25T05:10:11.467Z,1492.00
2023-04-25T05:11:11.586Z,1572.00
2023-04-25T05:12:12.836Z,1616.00
2023-04-25T05:13:12.819Z,1608.00
2023-04-25T05:14:12.817Z,1612.00
2023-04-25T05:15:12.813Z,1672.00
2023-04-25T05:16:12.863Z,1772.00
2023-04-25T05:17:12.766Z,1896.00
2023-04-25T05:18:12.767Z,2008.00
2023-04-25T05:19:12.722Z,2068.00
2023-04-25T05:20:12.713Z,2024.00
2023-04-25T05:21:12.700Z,1900.00
2023-04-25T05:22:12.693Z,1792.00
2023-04-25T05:23:12.669Z,1712.00
2023-04-25T05:24:12.660Z,1640.00
2023-04-25T05:25:12.661Z,1616.00
2023-04-25T05:26:12.621Z,1576.00
2023-04-25T05:27:12.639Z,1548.00
2023-04-25T05:28:12.591Z,1548.00
2023-04-25T05:29:12.591Z,1620.00
2023-04-25T05:30:12.578Z,1808.00
2023-04-25T05:31:12.572Z,2016.00
2023-04-25T05:32:12.610Z,2304.00
2023-04-25T05:33:12.586Z,2660.00
2023-04-25T05:34:12.527Z,2996.00
2023-04-25T05:35:12.571Z,3248.00
2023-04-25T05:36:12.505Z,3276.00
2023-04-25T05:37:12.479Z,3080.00
2023-04-25T05:38:12.472Z,2664.00
2023-04-25T05:39:12.456Z,2228.00
2023-04-25T05:40:12.433Z,1892.00
2023-04-25T05:41:12.419Z,1684.00
2023-04-25T05:42:10.963Z,1540.00
2023-04-25T05:43:12.384Z,1428.00
2023-04-25T05:44:11.939Z,1312.00
2023-04-25T05:45:12.383Z,1260.00
2023-04-25T05:46:12.413Z,1256.00
2023-04-25T05:47:12.354Z,1332.00
2023-04-25T05:48:12.354Z,1492.00
2023-04-25T05:49:12.318Z,1640.00
2023-04-25T05:50:12.325Z,1768.00
2023-04-25T05:51:12.281Z,1864.00
2023-04-25T05:52:12.297Z,1792.00
2023-04-25T05:53:12.267Z,1672.00
2023-04-25T05:54:12.242Z,1604.00
2023-04-25T05:55:11.741Z,1512.00
2023-04-25T05:56:12.222Z,1396.00
2023-04-25T05:57:12.212Z,1288.00
2023-04-25T05:58:12.190Z,1464.00
2023-04-25T05:59:12.164Z,1952.00
2023-04-25T06:00:12.199Z,2048.00
2023-04-25T06:01:12.144Z,1964.00
2023-04-25T06:02:12.224Z,1956.00
2023-04-25T06:03:12.282Z,1892.00
2023-04-25T06:04:12.370Z,1792.00
2023-04-25T06:05:11.565Z,1772.00
2023-04-25T06:06:10.811Z,1732.00
2023-04-25T06:07:10.604Z,1528.00
2023-04-25T06:08:11.126Z,1332.00
2023-04-25T06:09:14.291Z,1140.00
2023-04-25T06:10:12.057Z,1064.00
2023-04-25T06:11:11.517Z,1112.00
2023-04-25T06:12:12.002Z,1180.00
2023-04-25T06:13:12.008Z,1276.00
2023-04-25T06:14:11.204Z,1344.00
2023-04-25T06:15:24.249Z,1248.00
2023-04-25T06:16:12.970Z,1152.00
2023-04-25T06:17:11.970Z,1176.00
2023-04-25T06:18:11.953Z,1240.00
2023-04-25T06:19:11.903Z,1240.00
2023-04-25T06:20:11.905Z,1272.00
2023-04-25T06:21:11.903Z,1332.00
2023-04-25T06:22:11.130Z,1380.00
2023-04-25T06:23:10.415Z,1424.00
2023-04-25T06:24:11.841Z,1508.00
2023-04-25T06:25:11.834Z,1516.00
2023-04-25T06:26:11.813Z,1544.00
2023-04-25T06:27:11.801Z,1532.00
2023-04-25T06:28:11.862Z,1532.00
2023-04-25T06:29:11.789Z,1472.00
2023-04-25T06:30:10.607Z,1372.00
2023-04-25T06:31:11.785Z,1196.00
2023-04-25T06:32:11.739Z,1116.00
2023-04-25T06:33:11.771Z,1052.00
2023-04-25T06:34:11.726Z,1080.00
2023-04-25T06:35:11.690Z,1148.00
2023-04-25T06:36:11.698Z,1300.00
2023-04-25T06:37:11.685Z,1340.00
2023-04-25T06:38:11.748Z,1276.00
2023-04-25T06:39:11.638Z,1312.00
2023-04-25T06:40:11.637Z,1440.00
2023-04-25T06:41:11.612Z,1572.00
2023-04-25T06:42:11.613Z,1752.00
2023-04-25T06:43:11.587Z,1708.00
2023-04-25T06:44:11.603Z,1612.00
2023-04-25T06:45:11.554Z,1544.00
2023-04-25T06:46:10.095Z,1532.00
2023-04-25T06:47:11.558Z,1568.00
2023-04-25T06:48:11.521Z,1736.00
2023-04-25T06:49:11.513Z,2116.00
2023-04-25T06:50:11.502Z,2364.00
2023-04-25T06:51:11.484Z,2584.00
2023-04-25T06:52:11.472Z,3036.00
2023-04-25T06:53:11.470Z,3692.00
2023-04-25T06:54:11.452Z,4088.00
2023-04-25T06:55:11.340Z,4512.00
2023-04-25T06:56:11.412Z,4676.00
2023-04-25T06:57:11.435Z,4544.00
2023-04-25T06:58:11.396Z,4396.00
2023-04-25T06:59:11.369Z,4320.00
2023-04-25T07:00:11.389Z,4576.00
2023-04-25T07:01:11.401Z,5040.00
2023-04-25T07:02:11.550Z,5296.00
2023-04-25T07:03:11.449Z,5988.00
2023-04-25T07:04:11.443Z,6744.00
2023-04-25T07:05:11.308Z,7348.00
2023-04-25T07:06:11.293Z,7676.00
2023-04-25T07:07:11.268Z,7620.00
2023-04-25T07:08:11.238Z,7692.00
2023-04-25T07:09:11.243Z,7932.00
2023-04-25T07:10:11.259Z,7988.00
2023-04-25T07:11:11.222Z,8564.00
2023-04-25T07:12:11.217Z,9000.00
2023-04-25T07:13:11.189Z,9912.00
2023-04-25T07:14:10.017Z,11164.00
2023-04-25T07:15:10.013Z,12512.00
2023-04-25T07:16:10.044Z,13524.00
2023-04-25T07:17:11.153Z,14388.00
2023-04-25T07:18:09.717Z,14772.00
2023-04-25T07:19:10.012Z,14236.00
2023-04-25T07:20:11.107Z,13240.00
2023-04-25T07:21:10.023Z,12752.00
2023-04-25T07:22:11.083Z,12908.00
2023-04-25T07:23:11.073Z,14152.00
2023-04-25T07:24:11.040Z,16184.00
2023-04-25T07:25:11.021Z,18944.00
2023-04-25T07:26:09.567Z,22304.00
2023-04-25T07:27:11.010Z,25440.00
2023-04-25T07:28:10.984Z,28224.00
2023-04-25T07:29:10.966Z,30720.00
2023-04-25T07:30:10.970Z,30624.00
2023-04-25T07:31:10.946Z,30176.00
2023-04-25T07:32:10.948Z,28000.00
2023-04-25T07:33:10.963Z,24928.00
2023-04-25T07:34:09.771Z,39616.00
2023-04-25T07:35:10.898Z,27936.00
2023-04-25T07:36:10.872Z,15024.00
2023-04-25T07:37:10.865Z,13644.00
2023-04-25T07:38:09.892Z,12988.00
2023-04-25T07:39:10.857Z,12188.00
2023-04-25T07:40:10.830Z,11620.00
2023-04-25T07:41:10.803Z,10564.00
2023-04-25T07:42:10.019Z,10292.00
2023-04-25T07:43:10.794Z,11492.00
2023-04-25T07:44:09.808Z,13340.00
2023-04-25T07:45:10.766Z,15548.00
2023-04-25T07:46:10.799Z,18272.00
2023-04-25T07:47:10.748Z,20768.00
2023-04-25T07:48:10.706Z,21184.00
2023-04-25T07:49:10.717Z,21120.00
2023-04-25T07:50:10.678Z,19232.00
2023-04-25T07:51:10.670Z,16688.00
2023-04-25T07:52:10.669Z,14988.00
2023-04-25T07:53:10.640Z,14012.00
2023-04-25T07:54:10.624Z,13964.00
2023-04-25T07:55:10.621Z,14352.00
2023-04-25T07:56:10.606Z,13736.00
2023-04-25T07:57:10.596Z,12764.00
2023-04-25T07:58:09.133Z,12172.00
2023-04-25T07:59:10.569Z,11172.00
2023-04-25T08:00:10.576Z,10212.00
2023-04-25T08:01:10.552Z,9592.00
2023-04-25T08:02:10.596Z,9076.00
2023-04-25T08:03:11.051Z,8756.00
2023-04-25T08:04:10.569Z,8452.00
2023-04-25T08:05:10.740Z,7908.00
2023-04-25T08:06:09.500Z,7284.00
2023-04-25T08:07:10.463Z,6840.00
2023-04-25T08:08:10.440Z,7256.00
2023-04-25T08:09:10.475Z,7204.00
2023-04-25T08:10:10.430Z,7460.00
2023-04-25T08:11:10.397Z,7680.00
2023-04-25T08:12:10.400Z,7808.00
2023-04-25T08:13:10.362Z,8436.00
2023-04-25T08:14:10.362Z,8812.00
2023-04-25T08:15:10.354Z,9468.00
2023-04-25T08:16:10.380Z,10588.00
2023-04-25T08:17:10.326Z,11760.00
2023-04-25T08:18:10.359Z,12544.00
2023-04-25T08:19:10.286Z,12820.00
2023-04-25T08:20:10.280Z,12652.00
2023-04-25T08:21:10.268Z,13040.00
2023-04-25T08:22:10.268Z,14188.00
2023-04-25T08:23:10.246Z,14672.00
2023-04-25T08:24:10.221Z,15336.00
2023-04-25T08:25:09.262Z,15744.00
2023-04-25T08:26:10.202Z,16672.00
2023-04-25T08:27:10.231Z,18048.00
2023-04-25T08:28:09.335Z,19552.00
2023-04-25T08:29:10.185Z,21024.00
2023-04-25T08:30:09.327Z,22144.00
2023-04-25T08:31:09.132Z,22656.00
2023-04-25T08:32:09.293Z,21920.00
2023-04-25T08:33:10.149Z,21824.00
2023-04-25T08:34:10.100Z,21440.00
2023-04-25T08:35:10.073Z,20480.00
2023-04-25T08:36:08.939Z,19168.00
2023-04-25T08:37:09.311Z,17856.00
2023-04-25T08:38:09.141Z,18560.00
2023-04-25T08:39:09.303Z,18880.00
2023-04-25T08:40:10.033Z,17216.00
2023-04-25T08:41:10.185Z,16332.00
2023-04-25T08:42:09.969Z,16696.00
2023-04-25T08:43:09.979Z,16036.00
2023-04-25T08:44:09.945Z,14984.00
2023-04-25T08:45:09.320Z,13448.00
2023-04-25T08:46:09.923Z,12160.00
2023-04-25T08:47:10.069Z,9896.00
2023-04-25T08:48:09.929Z,8216.00
2023-04-25T08:49:09.887Z,7004.00
2023-04-25T08:50:09.875Z,6592.00
2023-04-25T08:52:09.887Z,6716.00
2023-04-25T08:53:09.113Z,7480.00
2023-04-25T08:54:30.906Z,8236.00
2023-04-25T08:55:10.807Z,9184.00
2023-04-25T08:56:09.779Z,10712.00
2023-04-25T08:57:09.913Z,14012.00
2023-04-25T08:58:09.770Z,17280.00
2023-04-25T08:59:09.738Z,20096.00
2023-04-25T09:00:09.724Z,21120.00
2023-04-25T09:01:09.732Z,21856.00
2023-04-25T09:02:08.312Z,22880.00
2023-04-25T09:03:09.966Z,21824.00
2023-04-25T09:04:09.816Z,20416.00
2023-04-25T09:05:09.664Z,20512.00
2023-04-25T09:06:09.651Z,20992.00
2023-04-25T09:07:09.635Z,21344.00
2023-04-25T09:08:09.640Z,24896.00
2023-04-25T09:09:08.614Z,28512.00
2023-04-25T09:10:09.640Z,29888.00
2023-04-25T09:11:09.585Z,28160.00
2023-04-25T09:12:09.572Z,24864.00
2023-04-25T09:13:09.590Z,18976.00
2023-04-25T09:14:09.540Z,15156.00
2023-04-25T09:15:09.536Z,12948.00
2023-04-25T09:16:09.567Z,12184.00
2023-04-25T09:17:09.555Z,10904.00
2023-04-25T09:18:08.087Z,8948.00
2023-04-25T09:19:09.473Z,7376.00
2023-04-25T09:20:09.462Z,6796.00
2023-04-25T09:21:13.569Z,6480.00
2023-04-25T09:22:10.418Z,6480.00
2023-04-25T09:23:09.432Z,6344.00
2023-04-25T09:24:09.399Z,6160.00
2023-04-25T09:25:09.378Z,6088.00
2023-04-25T09:26:07.914Z,6296.00
2023-04-25T09:27:09.353Z,6132.00
2023-04-25T09:28:09.354Z,5604.00
2023-04-25T09:29:09.337Z,5696.00
2023-04-25T09:30:09.345Z,5296.00
2023-04-25T09:31:09.315Z,5200.00
2023-04-25T09:32:09.305Z,5072.00
2023-04-25T09:33:09.313Z,5028.00
2023-04-25T09:34:09.261Z,5320.00
2023-04-25T09:35:09.271Z,5676.00
2023-04-25T09:36:08.151Z,6212.00
2023-04-25T09:37:09.234Z,6744.00
2023-04-25T09:38:08.114Z,7224.00
2023-04-25T09:39:08.119Z,7676.00
2023-04-25T09:40:09.228Z,8288.00
2023-04-25T09:41:07.802Z,8612.00
2023-04-25T09:42:08.194Z,10028.00
2023-04-25T09:43:09.159Z,9396.00
2023-04-25T09:44:09.136Z,9532.00
2023-04-25T09:45:09.113Z,9608.00
2023-04-25T09:46:09.119Z,9744.00
2023-04-25T09:47:09.107Z,10436.00
2023-04-25T09:48:09.146Z,11604.00
2023-04-25T09:49:07.694Z,13312.00
2023-04-25T09:50:09.047Z,15300.00
2023-04-25T09:51:09.032Z,18112.00
2023-04-25T09:52:09.028Z,21056.00
2023-04-25T09:53:09.003Z,23776.00
2023-04-25T09:54:08.999Z,24672.00
2023-04-25T09:55:08.991Z,25376.00
2023-04-25T09:56:08.979Z,26912.00
2023-04-25T09:57:08.958Z,29984.00
2023-04-25T09:58:08.937Z,34144.00
2023-04-25T09:59:08.001Z,36736.00
2023-04-25T10:00:08.915Z,37024.00
2023-04-25T10:01:08.930Z,36672.00
2023-04-25T10:02:08.920Z,37504.00
2023-04-25T10:03:08.929Z,37728.00
2023-04-25T10:04:08.902Z,36512.00
2023-04-25T10:05:08.891Z,37792.00
2023-04-25T10:06:08.826Z,40608.00
2023-04-25T10:07:08.827Z,42368.00
2023-04-25T10:08:08.810Z,43904.00
2023-04-25T10:09:08.791Z,36928.00
2023-04-25T10:10:08.279Z,31264.00
2023-04-25T10:11:08.773Z,26848.00
2023-04-25T10:12:08.764Z,22432.00
2023-04-25T10:13:08.729Z,19648.00
2023-04-25T10:14:07.274Z,18496.00
2023-04-25T10:15:08.715Z,19488.00
2023-04-25T10:16:08.710Z,21440.00
2023-04-25T10:17:08.696Z,23584.00
2023-04-25T10:18:08.751Z,22016.00
2023-04-25T10:19:08.673Z,23616.00
2023-04-25T10:20:08.659Z,25824.00
2023-04-25T10:21:07.187Z,26944.00
2023-04-25T10:22:08.624Z,26752.00
2023-04-25T10:23:08.587Z,26624.00
2023-04-25T10:24:08.579Z,26656.00
2023-04-25T10:25:08.607Z,28064.00
2023-04-25T10:26:08.572Z,29440.00
2023-04-25T10:27:08.546Z,29920.00
2023-04-25T10:28:08.526Z,31552.00
2023-04-25T10:29:07.383Z,28512.00
2023-04-25T10:30:07.501Z,28128.00
2023-04-25T10:31:08.577Z,29024.00
2023-04-25T10:32:08.523Z,29216.00
2023-04-25T10:33:08.468Z,31584.00
2023-04-25T10:34:08.485Z,36032.00
2023-04-25T10:35:08.475Z,37888.00
2023-04-25T10:36:08.421Z,37344.00
2023-04-25T10:37:06.954Z,38240.00
2023-04-25T10:38:08.417Z,37536.00
2023-04-25T10:39:08.450Z,90528.00
2023-04-25T10:40:08.440Z,128608.00
2023-04-25T10:41:08.356Z,131488.00
2023-04-25T10:42:08.348Z,124928.00
2023-04-25T10:43:08.351Z,130720.00
2023-04-25T10:44:08.311Z,123424.00
2023-04-25T10:45:06.895Z,54816.00
2023-04-25T10:46:07.376Z,113568.00
2023-04-25T10:47:08.318Z,59072.00
2023-04-25T10:48:08.314Z,86688.00
2023-04-25T10:49:07.430Z,119808.00
2023-04-25T10:50:08.221Z,106016.00
2023-04-25T10:51:08.247Z,151904.00
2023-04-25T10:52:08.203Z,135296.00
2023-04-25T10:53:07.423Z,115936.00
2023-04-25T10:54:07.419Z,97728.00
2023-04-25T10:55:08.159Z,55456.00
2023-04-25T10:56:09.634Z,37472.00
2023-04-25T10:57:07.422Z,38688.00
2023-04-25T10:58:08.141Z,42752.00
2023-04-25T10:59:08.132Z,46048.00
2023-04-25T11:00:08.088Z,112256.00
2023-04-25T11:01:07.397Z,124128.00
2023-04-25T11:02:08.171Z,117728.00
2023-04-25T11:03:08.262Z,43104.00
2023-04-25T11:04:08.234Z,39040.00
2023-04-25T11:05:08.030Z,46144.00
2023-04-25T11:06:08.005Z,71008.00
2023-04-25T11:07:08.525Z,91744.00
2023-04-25T11:08:08.552Z,31360.00
2023-04-25T11:09:07.283Z,32672.00
2023-04-25T11:10:07.967Z,55104.00
2023-04-25T11:11:07.954Z,36992.00
2023-04-25T11:12:07.932Z,47712.00
2023-04-25T11:13:07.938Z,74848.00
2023-04-25T11:14:07.907Z,94528.00
2023-04-25T11:15:07.892Z,37408.00
2023-04-25T11:16:13.396Z,28576.00
2023-04-25T11:17:08.915Z,26176.00
2023-04-25T11:18:08.320Z,24640.00
2023-04-25T11:19:07.838Z,24064.00
2023-04-25T11:20:07.346Z,27808.00
2023-04-25T11:21:07.816Z,31040.00
2023-04-25T11:22:07.839Z,34080.00
2023-04-25T11:23:07.799Z,106304.00
2023-04-25T11:24:07.773Z,109888.00
2023-04-25T11:25:07.776Z,114816.00
2023-04-25T11:26:07.742Z,118272.00
2023-04-25T11:27:07.738Z,49440.00
2023-04-25T11:28:07.738Z,47008.00
2023-04-25T11:29:07.698Z,45600.00
2023-04-25T11:30:07.692Z,100704.00
2023-04-25T11:31:07.724Z,68512.00
2023-04-25T11:32:07.734Z,53888.00
2023-04-25T11:33:06.225Z,31488.00
2023-04-25T11:34:07.627Z,28544.00
2023-04-25T11:35:07.619Z,25728.00
2023-04-25T11:36:07.609Z,23360.00
2023-04-25T11:37:07.630Z,20608.00
2023-04-25T11:38:07.589Z,18944.00
2023-04-25T11:39:07.571Z,17632.00
2023-04-25T11:40:07.562Z,16388.00
2023-04-25T11:41:07.541Z,15444.00
2023-04-25T11:42:13.485Z,15416.00
2023-04-25T11:43:08.602Z,16116.00
2023-04-25T11:44:07.494Z,17120.00
2023-04-25T11:45:07.485Z,17376.00
2023-04-25T11:46:07.502Z,17472.00
2023-04-25T11:47:07.452Z,18304.00
2023-04-25T11:48:07.512Z,18752.00
2023-04-25T11:49:05.985Z,19008.00
2023-04-25T11:50:07.437Z,19680.00
2023-04-25T11:51:07.382Z,21024.00
2023-04-25T11:52:07.393Z,22144.00
2023-04-25T11:53:07.377Z,21888.00
2023-04-25T11:54:06.230Z,21856.00
2023-04-25T11:55:08.997Z,22656.00
2023-04-25T11:56:07.321Z,25024.00
2023-04-25T11:57:05.866Z,28864.00
2023-04-25T11:58:07.311Z,32960.00
2023-04-25T11:59:06.644Z,34304.00
2023-04-25T12:00:06.232Z,36384.00
2023-04-25T12:01:07.284Z,35744.00
2023-04-25T12:02:07.244Z,35200.00
2023-04-25T12:03:07.303Z,36704.00
2023-04-25T12:04:07.341Z,25888.00
2023-04-25T12:05:21.509Z,21984.00
2023-04-25T12:06:07.663Z,22080.00
2023-04-25T12:07:06.244Z,21568.00
2023-04-25T12:08:07.180Z,22080.00
2023-04-25T12:09:07.147Z,23072.00
2023-04-25T12:10:07.157Z,24640.00
2023-04-25T12:11:07.119Z,27040.00
2023-04-25T12:12:07.137Z,27424.00
2023-04-25T12:13:07.108Z,29696.00
2023-04-25T12:14:07.096Z,32832.00
2023-04-25T12:15:07.078Z,51776.00
2023-04-25T12:16:07.105Z,77632.00
2023-04-25T12:17:07.046Z,38592.00
2023-04-25T12:18:07.066Z,45440.00
2023-04-25T12:19:07.016Z,42816.00
2023-04-25T12:20:06.066Z,78656.00
2023-04-25T12:21:06.076Z,100224.00
2023-04-25T12:22:06.962Z,77824.00
2023-04-25T12:23:06.974Z,97600.00